createdAt,value
2023-02-27T00:03:32.684Z,75.52
2023-02-27T00:08:34.416Z,75.66
2023-02-27T00:13:36.309Z,75.89
2023-02-27T00:18:37.868Z,76.13
2023-02-27T00:23:39.454Z,76.69
2023-02-27T00:28:41.031Z,76.73
2023-02-27T00:33:42.593Z,76.79
2023-02-27T00:38:44.146Z,78.17
2023-02-27T00:43:45.764Z,78.62
2023-02-27T00:48:47.315Z,79.00
2023-02-27T00:53:48.911Z,79.00
2023-02-27T00:58:50.529Z,78.95
2023-02-27T01:03:52.123Z,78.63
2023-02-27T01:08:53.735Z,79.20
2023-02-27T01:13:55.387Z,79.48
2023-02-27T01:18:57.063Z,79.35
2023-02-27T01:23:58.776Z,79.43
2023-02-27T01:29:00.386Z,79.29
2023-02-27T01:34:02.092Z,80.80
2023-02-27T01:39:03.796Z,80.98
2023-02-27T01:44:10.860Z,80.58
2023-02-27T01:49:22.284Z,80.32
2023-02-27T01:54:26.310Z,80.55
2023-02-27T01:59:28.102Z,79.64
2023-02-27T02:04:35.442Z,81.32
2023-02-27T02:09:41.001Z,80.45
2023-02-27T02:14:42.737Z,81.47
2023-02-27T02:19:54.592Z,81.42
2023-02-27T02:25:08.030Z,80.61
2023-02-27T02:30:18.336Z,79.41
2023-02-27T02:35:38.779Z,81.02
2023-02-27T02:40:46.126Z,81.00
2023-02-27T02:45:51.554Z,81.11
2023-02-27T02:51:01.977Z,79.79
2023-02-27T02:56:34.323Z,80.12
2023-02-27T03:01:59.647Z,80.46
2023-02-27T03:07:13.106Z,80.72
2023-02-27T03:12:18.732Z,80.88
2023-02-27T03:17:27.216Z,81.14
2023-02-27T03:22:32.619Z,80.86
2023-02-27T03:27:38.737Z,81.99
2023-02-27T03:32:42.590Z,81.62
2023-02-27T03:37:44.673Z,81.47
2023-02-27T03:42:53.614Z,81.22
2023-02-27T03:48:00.992Z,80.79
2023-02-27T03:53:16.189Z,80.66
2023-02-27T03:58:17.812Z,81.01
2023-02-27T04:03:20.997Z,81.26
2023-02-27T04:08:25.555Z,82.13
2023-02-27T04:13:51.720Z,81.44
2023-02-27T04:19:08.258Z,81.88
2023-02-27T04:24:38.834Z,81.38
2023-02-27T04:30:11.411Z,80.37
2023-02-27T04:35:21.213Z,80.50
2023-02-27T04:40:34.291Z,80.32
2023-02-27T04:45:38.460Z,79.60
2023-02-27T04:50:47.841Z,80.90
2023-02-27T04:55:56.290Z,80.40
2023-02-27T05:01:09.310Z,80.05
2023-02-27T05:06:11.628Z,80.42
2023-02-27T05:11:36.337Z,81.62
2023-02-27T05:16:56.479Z,79.75
2023-02-27T05:22:16.026Z,78.28
2023-02-27T05:27:24.802Z,79.38
2023-02-27T05:32:32.068Z,79.44
2023-02-27T05:37:45.234Z,79.56
2023-02-27T05:42:56.370Z,79.93
2023-02-27T05:48:18.421Z,78.91
2023-02-27T05:53:22.157Z,80.24
2023-02-27T05:58:36.922Z,80.77
2023-02-27T06:03:40.256Z,79.89
2023-02-27T06:08:42.211Z,79.25
2023-02-27T06:13:43.787Z,79.87
2023-02-27T06:18:45.399Z,79.89
2023-02-27T06:23:46.980Z,78.74
2023-02-27T06:28:48.544Z,79.21
2023-02-27T06:33:50.366Z,78.67
2023-02-27T06:38:51.937Z,79.40
2023-02-27T06:43:53.543Z,79.30
2023-02-27T06:48:55.108Z,79.32
2023-02-27T06:53:56.656Z,78.77
2023-02-27T06:58:59.549Z,78.75
2023-02-27T07:04:01.273Z,78.28
2023-02-27T07:09:06.598Z,79.17
2023-02-27T07:14:08.750Z,79.36
2023-02-27T07:19:10.658Z,78.17
2023-02-27T07:24:12.299Z,78.44
2023-02-27T07:29:14.934Z,77.96
2023-02-27T07:34:16.692Z,77.66
2023-02-27T07:39:19.356Z,77.35
2023-02-27T07:44:20.929Z,75.66
2023-02-27T07:49:22.560Z,76.09
2023-02-27T07:54:24.243Z,75.88
2023-02-27T07:59:25.869Z,75.57
2023-02-27T08:04:27.506Z,76.02
2023-02-27T08:09:30.743Z,76.35
2023-02-27T08:14:32.394Z,75.37
2023-02-27T08:19:34.057Z,75.65
2023-02-27T08:24:35.601Z,74.69
2023-02-27T08:29:37.134Z,74.28
2023-02-27T08:34:38.785Z,74.54
2023-02-27T08:39:40.335Z,75.23
2023-02-27T08:44:41.914Z,74.32
2023-02-27T08:49:43.540Z,75.04
2023-02-27T08:54:45.477Z,74.34
2023-02-27T08:59:47.145Z,74.21
2023-02-27T09:04:48.746Z,76.01
2023-02-27T09:09:50.590Z,74.03
2023-02-27T09:14:52.160Z,73.76
2023-02-27T09:19:55.396Z,74.01
2023-02-27T09:24:58.601Z,73.25
2023-02-27T09:30:00.176Z,72.69
2023-02-27T09:35:01.723Z,73.30
2023-02-27T09:40:05.945Z,71.51
2023-02-27T09:45:08.395Z,72.66
2023-02-27T09:50:28.580Z,71.22
2023-02-27T09:55:33.828Z,72.38
2023-02-27T10:00:35.311Z,72.09
2023-02-27T10:06:14.857Z,74.16
2023-02-27T10:11:22.649Z,73.13
2023-02-27T10:16:25.635Z,71.41
2023-02-27T10:21:36.048Z,72.94
2023-02-27T10:26:40.694Z,71.58
2023-02-27T10:31:42.800Z,70.27
2023-02-27T10:36:46.669Z,71.32
2023-02-27T10:41:48.846Z,71.18
2023-02-27T10:46:51.986Z,71.52
2023-02-27T10:52:12.279Z,72.74
2023-02-27T10:57:42.991Z,74.57
2023-02-27T11:02:48.996Z,74.33
2023-02-27T11:07:51.126Z,74.29
2023-02-27T11:13:21.459Z,73.14
2023-02-27T11:18:31.274Z,73.89
2023-02-27T11:23:33.857Z,73.05
2023-02-27T11:28:35.433Z,73.08
2023-02-27T11:33:39.558Z,73.64
2023-02-27T11:38:41.179Z,75.10
2023-02-27T11:43:52.708Z,73.57
2023-02-27T11:49:07.595Z,73.30
2023-02-27T11:54:38.816Z,69.66
2023-02-27T11:59:44.783Z,69.32
2023-02-27T12:04:51.396Z,69.46
2023-02-27T12:10:06.720Z,69.88
2023-02-27T12:15:26.507Z,72.96
2023-02-27T12:20:34.043Z,68.63
2023-02-27T12:25:43.847Z,69.16
2023-02-27T12:30:54.327Z,70.22
2023-02-27T12:36:01.472Z,73.76
2023-02-27T12:41:37.035Z,68.66
2023-02-27T12:46:39.544Z,69.06
2023-02-27T12:51:53.027Z,68.64
2023-02-27T12:57:09.599Z,68.23
2023-02-27T13:02:29.270Z,67.26
2023-02-27T13:07:46.103Z,69.77
2023-02-27T13:12:52.694Z,70.19
2023-02-27T13:18:01.948Z,68.06
2023-02-27T13:23:12.410Z,66.60
2023-02-27T13:28:17.769Z,67.50
2023-02-27T13:33:29.651Z,63.65
2023-02-27T13:38:42.708Z,61.80
2023-02-27T13:43:52.197Z,67.02
2023-02-27T13:49:04.118Z,63.46
2023-02-27T13:54:09.516Z,66.19
2023-02-27T13:59:19.934Z,62.89
2023-02-27T14:04:24.971Z,66.21
2023-02-27T14:09:33.481Z,63.42
2023-02-27T14:14:38.871Z,59.33
2023-02-27T14:19:40.394Z,56.76
2023-02-27T14:25:01.711Z,58.06
2023-02-27T14:30:07.915Z,59.25
2023-02-27T14:35:15.137Z,58.12
2023-02-27T14:40:32.450Z,59.53
2023-02-27T14:45:34.075Z,57.47
2023-02-27T14:50:39.197Z,56.68
2023-02-27T14:55:40.801Z,58.01
2023-02-27T15:01:17.951Z,58.40
2023-02-27T15:06:20.704Z,57.47
2023-02-27T15:11:23.304Z,57.04
2023-02-27T15:16:55.863Z,57.61
2023-02-27T15:21:59.698Z,58.85
2023-02-27T15:27:04.474Z,60.86
2023-02-27T15:32:07.397Z,63.64
2023-02-27T15:37:09.139Z,64.76
2023-02-27T15:42:11.690Z,66.44
2023-02-27T15:47:19.052Z,68.17
2023-02-27T15:52:26.213Z,69.60
2023-02-27T15:57:27.872Z,71.42
2023-02-27T16:02:33.917Z,71.12
2023-02-27T16:07:40.762Z,72.44
2023-02-27T16:12:43.100Z,72.72
2023-02-27T16:18:07.840Z,72.04
2023-02-27T16:23:29.729Z,70.29
2023-02-27T16:28:59.979Z,69.53
2023-02-27T16:34:26.095Z,69.33
2023-02-27T16:39:30.532Z,68.79
2023-02-27T16:44:32.148Z,69.18
2023-02-27T16:49:33.783Z,70.61
2023-02-27T16:54:35.446Z,70.00
2023-02-27T16:59:41.992Z,70.66
2023-02-27T17:04:44.483Z,69.76
2023-02-27T17:09:46.779Z,69.69
2023-02-27T17:14:48.523Z,70.01
2023-02-27T17:19:50.170Z,70.70
2023-02-27T17:24:51.768Z,71.73
2023-02-27T17:29:53.383Z,69.67
2023-02-27T17:34:55.769Z,70.44
2023-02-27T17:39:57.384Z,70.39
2023-02-27T17:45:01.254Z,71.34
2023-02-27T17:50:04.177Z,70.91
2023-02-27T17:55:08.478Z,69.81
2023-02-27T18:00:16.177Z,70.50
2023-02-27T18:05:18.401Z,71.67
2023-02-27T18:10:20.050Z,71.57
2023-02-27T18:15:21.647Z,71.67
2023-02-27T18:20:23.643Z,73.14
2023-02-27T18:25:26.142Z,74.81
2023-02-27T18:30:30.883Z,73.83
2023-02-27T18:35:32.696Z,73.29
2023-02-27T18:40:34.680Z,74.01
2023-02-27T18:45:37.218Z,74.18
2023-02-27T18:50:39.003Z,73.74
2023-02-27T18:55:40.767Z,73.76
2023-02-27T19:00:42.356Z,74.16
2023-02-27T19:05:44.018Z,73.97
2023-02-27T19:10:45.726Z,74.64
2023-02-27T19:15:47.337Z,76.57
2023-02-27T19:20:48.975Z,76.03
2023-02-27T19:25:58.413Z,76.42
2023-02-27T19:31:00.050Z,75.16
2023-02-27T19:36:14.968Z,72.58
2023-02-27T19:41:16.953Z,74.48
2023-02-27T19:46:27.510Z,73.10
2023-02-27T19:51:29.517Z,73.87
2023-02-27T19:56:31.603Z,73.20
2023-02-27T20:01:37.036Z,75.32
2023-02-27T20:06:44.411Z,75.54
2023-02-27T20:11:47.885Z,76.43
2023-02-27T20:16:49.546Z,77.01
2023-02-27T20:21:52.116Z,76.63
2023-02-27T20:26:54.195Z,76.15
2023-02-27T20:31:57.316Z,77.05
2023-02-27T20:37:00.413Z,76.39
2023-02-27T20:42:02.161Z,77.95
2023-02-27T20:47:03.857Z,77.26
2023-02-27T20:52:05.586Z,78.34
2023-02-27T20:57:07.155Z,77.57
2023-02-27T21:02:10.158Z,78.49
2023-02-27T21:07:13.493Z,78.82
2023-02-27T21:12:15.472Z,78.20
2023-02-27T21:17:17.171Z,78.57
2023-02-27T21:22:18.725Z,78.65
2023-02-27T21:27:21.362Z,78.64
2023-02-27T21:32:23.040Z,78.26
2023-02-27T21:37:24.872Z,77.69
2023-02-27T21:42:26.442Z,78.36
2023-02-27T21:47:28.801Z,77.36
2023-02-27T21:52:31.526Z,77.08
2023-02-27T21:57:33.809Z,76.00
2023-02-27T22:02:35.412Z,77.64
2023-02-27T22:07:37.442Z,77.74
2023-02-27T22:12:39.095Z,77.32
2023-02-27T22:17:40.761Z,77.96
2023-02-27T22:22:42.374Z,78.28
2023-02-27T22:27:43.951Z,78.15
2023-02-27T22:32:45.554Z,77.83
2023-02-27T22:37:47.216Z,77.30
2023-02-27T22:42:48.860Z,76.75
2023-02-27T22:47:50.441Z,77.35
2023-02-27T22:52:52.056Z,76.95
2023-02-27T22:57:54.203Z,76.95
2023-02-27T23:02:55.784Z,78.32
2023-02-27T23:07:57.433Z,77.86
2023-02-27T23:12:59.018Z,76.58
2023-02-27T23:18:00.588Z,75.51
2023-02-27T23:23:02.161Z,76.40
2023-02-27T23:28:05.028Z,76.49
2023-02-27T23:33:06.598Z,76.93
2023-02-27T23:38:08.259Z,76.97
2023-02-27T23:43:09.910Z,76.11
2023-02-27T23:48:11.586Z,74.89
2023-02-27T23:53:13.854Z,74.87
2023-02-27T23:58:15.464Z,74.25
